Time;durP1;ratioP1;P1;durP2;ratioP2;P2;SDS_P1;SDS_P2;PMS_P1;PMS_P2;Temp;Humidity;BMP_temperature;BMP_pressure;BME280_temperature;BME280_humidity;BME280_pressure;Samples;Min_cycle;Max_cycle;Signal;HPM_P1;HPM_P2
2022/05/30 00:02:07;;;;;;;18.23;11.10;;;;;;;;;;5028426;28;20473;-87
2022/05/30 00:04:52;;;;;;;16.40;12.15;;;;;;;;;;5027981;28;20404;-84
2022/05/30 00:07:38;;;;;;;16.02;10.57;;;;;;;;;;5036330;28;20049;-84
2022/05/30 00:10:23;;;;;;;18.23;11.48;;;;;;;;;;5015028;28;20049;-85
2022/05/30 00:13:10;;;;;;;14.70;11.68;;;;;;;;;;5036471;28;20049;-83
2022/05/30 00:15:54;;;;;;;13.93;10.90;;;;;;;;;;5036573;28;20050;-86
2022/05/30 00:18:40;;;;;;;17.35;11.32;;;;;;;;;;5035770;28;20042;-85
2022/05/30 00:21:26;;;;;;;17.27;11.82;;;;;;;;;;5036451;28;20045;-84
2022/05/30 00:24:11;;;;;;;18.52;11.73;;;;;;;;;;5035750;28;20423;-85
2022/05/30 00:26:57;;;;;;;17.67;11.65;;;;;;;;;;5029639;28;20050;-84
2022/05/30 00:29:42;;;;;;;19.45;11.90;;;;;;;;;;5037629;28;20050;-84
2022/05/30 00:32:31;;;;;;;13.70;11.35;;;;;;;;;;5044290;28;20049;-85
2022/05/30 00:35:17;;;;;;;17.38;11.40;;;;;;;;;;5032527;28;20050;-84
2022/05/30 00:38:02;;;;;;;19.13;11.98;;;;;;;;;;5040019;28;20042;-82
2022/05/30 00:40:48;;;;;;;14.57;12.05;;;;;;;;;;5045280;28;20045;-83
2022/05/30 00:43:36;;;;;;;17.92;11.85;;;;;;;;;;5039346;28;20053;-86
2022/05/30 00:46:22;;;;;;;17.05;11.93;;;;;;;;;;5036501;28;20053;-85
2022/05/30 00:49:11;;;;;;;18.15;12.40;;;;;;;;;;5020910;28;20041;-85
2022/05/30 00:52:01;;;;;;;16.92;11.88;;;;;;;;;;5035483;28;20396;-84
2022/05/30 00:55:06;;;;;;;16.17;12.05;;;;;;;;;;5020942;28;20045;-87
2022/05/30 00:57:53;;;;;;;13.85;11.55;;;;;;;;;;5036669;28;20050;-85
2022/05/30 01:00:38;;;;;;;20.77;11.68;;;;;;;;;;5035142;28;20057;-86
2022/05/30 01:06:33;;;;;;;15.75;10.88;;;;;;;;;;5026876;28;20049;-84
2022/05/30 01:09:44;;;;;;;19.23;11.45;;;;;;;;;;5026733;28;20049;-88
2022/05/30 01:12:49;;;;;;;15.88;11.02;;;;;;;;;;5041716;28;20408;-86
2022/05/30 01:15:36;;;;;;;;;;;;;;;;;;5026945;28;20057;-85
2022/05/30 01:18:42;;;;;;;16.95;10.90;;;;;;;;;;5026829;28;19917;-84
2022/05/30 01:21:46;;;;;;;15.88;10.70;;;;;;;;;;5026472;28;20049;-87
2022/05/30 01:24:45;;;;;;;15.80;11.03;;;;;;;;;;5026677;28;20050;-85
2022/05/30 01:28:12;;;;;;;14.35;11.15;;;;;;;;;;5022503;28;20734;-86
2022/05/30 01:31:03;;;;;;;13.77;10.90;;;;;;;;;;5013841;28;20049;-84
2022/05/30 01:33:52;;;;;;;17.63;10.85;;;;;;;;;;5026335;28;20049;-85
2022/05/30 01:36:38;;;;;;;17.15;11.40;;;;;;;;;;5026502;28;20480;-85
2022/05/30 01:39:24;;;;;;;20.30;11.15;;;;;;;;;;5024555;28;20057;-87
2022/05/30 01:42:13;;;;;;;18.33;10.85;;;;;;;;;;5026083;28;20053;-85
2022/05/30 01:45:01;;;;;;;15.38;11.05;;;;;;;;;;5026150;28;20056;-84
2022/05/30 01:47:47;;;;;;;14.85;10.98;;;;;;;;;;5012942;28;20053;-84
2022/05/30 01:50:32;;;;;;;17.60;11.57;;;;;;;;;;5026683;28;20476;-87
2022/05/30 01:53:28;;;;;;;14.48;10.95;;;;;;;;;;5026707;28;20053;-86
2022/05/30 01:56:39;;;;;;;16.90;10.82;;;;;;;;;;5010787;28;20041;-86
2022/05/30 01:59:25;;;;;;;15.85;11.77;;;;;;;;;;5027153;28;20054;-86
2022/05/30 02:02:29;;;;;;;12.88;10.70;;;;;;;;;;5033872;28;20045;-86
2022/05/30 02:05:14;;;;;;;13.40;10.65;;;;;;;;;;5026002;28;20057;-86
2022/05/30 02:08:01;;;;;;;13.40;10.90;;;;;;;;;;5025932;28;20053;-88
2022/05/30 02:10:49;;;;;;;17.33;11.20;;;;;;;;;;5026344;28;20049;-85
2022/05/30 02:13:35;;;;;;;15.32;10.88;;;;;;;;;;5026991;28;20049;-85
2022/05/30 02:19:42;;;;;;;19.33;11.32;;;;;;;;;;5027330;28;20049;-85
2022/05/30 02:22:29;;;;;;;15.63;11.27;;;;;;;;;;5026501;28;20477;-86
2022/05/30 02:25:15;;;;;;;16.65;11.18;;;;;;;;;;5025891;28;20056;-86
2022/05/30 02:28:00;;;;;;;14.48;11.02;;;;;;;;;;5026229;28;20045;-86
2022/05/30 02:30:46;;;;;;;15.35;11.60;;;;;;;;;;5025918;28;20049;-85
2022/05/30 02:36:39;;;;;;;12.93;10.70;;;;;;;;;;5026255;28;20484;-87
2022/05/30 02:39:28;;;;;;;15.60;10.25;;;;;;;;;;5025687;28;20057;-87
2022/05/30 02:42:33;;;;;;;15.65;10.55;;;;;;;;;;5034156;28;20045;-87
2022/05/30 02:45:19;;;;;;;13.68;10.63;;;;;;;;;;5025237;28;20049;-86
2022/05/30 02:48:05;;;;;;;15.80;10.50;;;;;;;;;;5013010;28;20053;-86
2022/05/30 02:50:50;;;;;;;16.77;10.50;;;;;;;;;;5034371;28;20046;-86
2022/05/30 02:53:36;;;;;;;13.57;10.38;;;;;;;;;;5026589;28;20468;-87
2022/05/30 02:56:42;;;;;;;19.77;11.35;;;;;;;;;;5020752;28;20037;-86
2022/05/30 02:59:28;;;;;;;15.95;10.50;;;;;;;;;;5014236;28;20045;-85
2022/05/30 03:02:20;;;;;;;14.25;10.98;;;;;;;;;;5030190;28;20042;-85
2022/05/30 03:05:06;;;;;;;13.80;10.07;;;;;;;;;;5012915;28;20061;-86
2022/05/30 03:07:51;;;;;;;12.13;9.45;;;;;;;;;;5026054;28;20469;-87
2022/05/30 03:11:15;;;;;;;9.52;8.52;;;;;;;;;;4992654;28;20042;-86
2022/05/30 03:14:01;;;;;;;13.90;9.48;;;;;;;;;;4986091;28;20050;-86
2022/05/30 03:16:46;;;;;;;16.70;10.93;;;;;;;;;;5036635;28;20424;-85
2022/05/30 03:19:34;;;;;;;12.48;9.90;;;;;;;;;;5023546;28;20045;-83
2022/05/30 03:22:21;;;;;;;15.95;9.82;;;;;;;;;;5037689;28;20041;-87
2022/05/30 03:25:44;;;;;;;14.82;9.82;;;;;;;;;;5046442;28;20057;-86
2022/05/30 03:28:31;;;;;;;19.08;10.63;;;;;;;;;;5029032;28;20046;-87
2022/05/30 03:31:17;;;;;;;12.43;8.10;;;;;;;;;;5029349;28;20053;-86
2022/05/30 03:34:04;;;;;;;12.10;7.97;;;;;;;;;;5042560;28;20468;-87
2022/05/30 03:36:49;;;;;;;10.75;7.82;;;;;;;;;;5043982;28;20049;-86
2022/05/30 03:39:53;;;;;;;12.00;7.43;;;;;;;;;;5037275;28;20404;-86
2022/05/30 03:43:13;;;;;;;12.60;8.02;;;;;;;;;;5044117;28;20037;-87
2022/05/30 03:45:59;;;;;;;13.25;7.53;;;;;;;;;;5037589;28;20053;-86
2022/05/30 03:48:45;;;;;;;12.90;7.93;;;;;;;;;;5025811;28;20484;-87
2022/05/30 03:51:32;;;;;;;12.68;8.65;;;;;;;;;;5008918;28;20045;-86
2022/05/30 03:54:18;;;;;;;13.98;8.65;;;;;;;;;;5011898;28;20041;-88
2022/05/30 03:57:04;;;;;;;13.43;9.05;;;;;;;;;;5037499;28;20054;-85
2022/05/30 03:59:49;;;;;;;11.95;8.95;;;;;;;;;;5037886;28;20392;-84
2022/05/30 04:02:34;;;;;;;14.02;9.80;;;;;;;;;;5028791;28;20041;-83
2022/05/30 04:05:20;;;;;;;11.52;9.63;;;;;;;;;;5034065;28;20045;-84
2022/05/30 04:08:06;;;;;;;13.68;10.10;;;;;;;;;;5039154;28;20477;-84
2022/05/30 04:11:10;;;;;;;14.68;10.05;;;;;;;;;;5015974;28;20042;-84
2022/05/30 04:14:16;;;;;;;;;;;;;;;;;;5004579;28;20045;-84
2022/05/30 04:17:10;;;;;;;16.55;10.18;;;;;;;;;;5041034;28;19917;-84
2022/05/30 04:19:56;;;;;;;13.25;10.20;;;;;;;;;;5041608;28;20041;-84
2022/05/30 04:22:44;;;;;;;18.05;11.05;;;;;;;;;;5036977;28;20045;-84
2022/05/30 04:25:49;;;;;;;14.65;10.57;;;;;;;;;;5040342;28;20049;-84
2022/05/30 04:28:35;;;;;;;14.70;10.35;;;;;;;;;;5034089;28;20469;-84
2022/05/30 04:31:38;;;;;;;18.00;11.55;;;;;;;;;;5021141;28;20037;-84
2022/05/30 04:34:24;;;;;;;16.95;11.35;;;;;;;;;;5041816;28;20396;-84
2022/05/30 04:37:09;;;;;;;13.52;10.88;;;;;;;;;;5040650;28;20045;-84
2022/05/30 04:40:04;;;;;;;15.15;10.77;;;;;;;;;;5007821;28;20445;-84
2022/05/30 04:43:21;;;;;;;19.20;10.07;;;;;;;;;;4992770;28;20042;-84
2022/05/30 04:46:25;;;;;;;12.13;9.98;;;;;;;;;;5008840;28;20049;-83
2022/05/30 04:49:11;;;;;;;12.43;10.18;;;;;;;;;;5023993;28;20045;-84
2022/05/30 04:51:57;;;;;;;15.18;10.25;;;;;;;;;;5023798;28;20045;-85
2022/05/30 04:54:42;;;;;;;17.35;10.82;;;;;;;;;;5035536;28;20049;-85
2022/05/30 04:57:53;;;;;;;14.98;10.73;;;;;;;;;;5023544;28;20045;-85
2022/05/30 05:00:58;;;;;;;17.05;10.93;;;;;;;;;;5035017;28;20049;-84
2022/05/30 05:03:45;;;;;;;14.48;10.80;;;;;;;;;;5025934;28;20417;-84
2022/05/30 05:06:31;;;;;;;17.35;11.90;;;;;;;;;;5026133;28;20481;-85
2022/05/30 05:09:16;;;;;;;17.77;11.65;;;;;;;;;;5029700;28;20053;-84
2022/05/30 05:12:20;;;;;;;17.35;10.77;;;;;;;;;;5040522;28;20049;-84
2022/05/30 05:15:31;;;;;;;16.25;11.50;;;;;;;;;;5021361;28;20049;-83
2022/05/30 05:18:30;;;;;;;17.30;12.70;;;;;;;;;;5047095;28;20053;-83
2022/05/30 05:21:25;;;;;;;19.50;13.38;;;;;;;;;;5032406;28;20045;-84
2022/05/30 07:00:46;;;;;;;17.23;11.07;;;;;;;;;;5111885;27;20454;-86
2022/05/30 07:04:00;;;;;;;13.25;8.13;;;;;;;;;;5112676;28;20371;-87
2022/05/30 07:07:05;;;;;;;15.40;8.25;;;;;;;;;;5111402;28;20040;-86
2022/05/30 07:10:14;;;;;;;11.48;8.20;;;;;;;;;;5107344;28;20036;-85
2022/05/30 07:13:07;;;;;;;15.55;6.85;;;;;;;;;;5118477;28;20047;-86
2022/05/30 07:15:52;;;;;;;9.30;6.25;;;;;;;;;;5104366;28;20052;-87
2022/05/30 07:18:46;;;;;;;13.07;7.07;;;;;;;;;;5117629;28;20040;-86
2022/05/30 07:21:31;;;;;;;11.43;7.22;;;;;;;;;;5117709;28;20032;-86
2022/05/30 07:24:37;;;;;;;13.23;6.30;;;;;;;;;;5110514;28;20047;-84
2022/05/30 07:27:41;;;;;;;7.78;5.75;;;;;;;;;;5098944;28;20040;-84
2022/05/30 07:30:44;;;;;;;8.25;5.72;;;;;;;;;;5110312;28;20389;-87
2022/05/30 07:33:48;;;;;;;7.97;5.55;;;;;;;;;;5111301;28;20044;-87
2022/05/30 07:36:52;;;;;;;11.27;6.13;;;;;;;;;;5111334;28;20048;-84
2022/05/30 07:39:48;;;;;;;8.55;5.38;;;;;;;;;;5118214;28;20445;-86
2022/05/30 07:43:06;;;;;;;10.38;5.20;;;;;;;;;;5098431;28;20489;-85
2022/05/30 07:46:11;;;;;;;7.85;5.05;;;;;;;;;;5110886;28;20040;-88
2022/05/30 07:49:20;;;;;;;9.90;5.63;;;;;;;;;;5106801;28;20035;-85
2022/05/30 07:52:17;;;;;;;9.10;5.38;;;;;;;;;;5117609;28;20055;-87
2022/05/30 07:55:25;;;;;;;7.63;4.75;;;;;;;;;;5105953;28;20039;-89
2022/05/30 07:58:11;;;;;;;7.07;5.15;;;;;;;;;;5116688;28;20044;-84
2022/05/30 08:00:57;;;;;;;8.10;5.22;;;;;;;;;;5102268;28;20389;-86
2022/05/30 08:03:48;;;;;;;8.27;4.70;;;;;;;;;;5103381;28;20111;-85
2022/05/30 08:06:52;;;;;;;7.20;4.95;;;;;;;;;;5109717;28;20040;-85
2022/05/30 08:09:49;;;;;;;8.18;5.10;;;;;;;;;;5115138;28;20390;-84
2022/05/30 08:12:40;;;;;;;6.82;3.92;;;;;;;;;;5103303;28;20394;-87
2022/05/30 08:15:44;;;;;;;10.38;5.00;;;;;;;;;;5096583;28;20044;-86
2022/05/30 08:18:33;;;;;;;7.78;4.95;;;;;;;;;;5089154;28;20047;-85
2022/05/30 08:21:21;;;;;;;11.00;5.38;;;;;;;;;;5102720;28;20044;-84
2022/05/30 08:24:08;;;;;;;10.95;5.18;;;;;;;;;;5088845;28;20043;-83
2022/05/30 08:26:57;;;;;;;5.40;4.47;;;;;;;;;;5102984;28;20047;-85
2022/05/30 08:29:59;;;;;;;10.10;4.90;;;;;;;;;;5102039;28;20032;-85
2022/05/30 08:32:46;;;;;;;8.43;5.15;;;;;;;;;;5102834;28;20044;-85
2022/05/30 08:36:17;;;;;;;11.10;5.32;;;;;;;;;;5095963;28;20040;-85
2022/05/30 08:42:09;;;;;;;;;;;;;;;;;;5103002;28;20055;-83
2022/05/30 08:45:21;;;;;;;6.85;5.20;;;;;;;;;;5090665;28;19912;-86
2022/05/30 08:48:36;;;;;;;9.27;4.60;;;;;;;;;;5102429;28;20043;-85
2022/05/30 08:51:51;;;;;;;8.32;5.03;;;;;;;;;;5101685;28;20056;-86
2022/05/30 08:55:05;;;;;;;12.32;5.65;;;;;;;;;;5101813;28;20393;-84
2022/05/30 08:58:07;;;;;;;8.13;5.38;;;;;;;;;;5101561;28;20044;-86
2022/05/30 09:01:00;;;;;;;7.22;5.38;;;;;;;;;;5087529;28;20036;-86
2022/05/30 09:04:16;;;;;;;13.70;5.38;;;;;;;;;;5095018;28;20048;-86
2022/05/30 09:07:10;;;;;;;6.32;5.18;;;;;;;;;;5101773;28;20043;-87
2022/05/30 09:10:16;;;;;;;10.65;5.30;;;;;;;;;;5087565;28;20032;-89
2022/05/30 09:13:21;;;;;;;8.15;5.68;;;;;;;;;;5087323;28;20501;-88
2022/05/30 09:16:29;;;;;;;11.75;5.85;;;;;;;;;;5093145;28;20044;-89
2022/05/30 09:19:22;;;;;;;8.95;5.68;;;;;;;;;;5101174;28;20431;-87
2022/05/30 09:22:09;;;;;;;13.02;5.50;;;;;;;;;;5086553;28;20490;-86
2022/05/30 09:28:28;;;;;;;8.85;5.60;;;;;;;;;;5101269;28;20036;-88
2022/05/30 09:31:56;;;;;;;9.32;5.05;;;;;;;;;;5085906;28;20486;-88
2022/05/30 09:34:47;;;;;;;7.93;5.25;;;;;;;;;;5100882;28;20044;-87
2022/05/30 09:38:19;;;;;;;9.38;4.93;;;;;;;;;;5101551;28;20047;-87
2022/05/30 09:41:51;;;;;;;9.13;5.43;;;;;;;;;;5101401;28;20036;-88
2022/05/30 09:44:42;;;;;;;11.77;5.50;;;;;;;;;;5087499;28;20048;-87
2022/05/30 09:48:18;;;;;;;8.48;5.00;;;;;;;;;;5094491;28;20044;-88
2022/05/30 09:51:30;;;;;;;8.02;5.32;;;;;;;;;;5101457;28;20048;-87
2022/05/30 09:54:24;;;;;;;8.85;4.40;;;;;;;;;;5100766;28;20490;-85
2022/05/30 09:57:21;;;;;;;6.50;4.85;;;;;;;;;;5100910;28;20040;-86
2022/05/30 10:00:38;;;;;;;10.20;4.30;;;;;;;;;;5094663;28;20394;-84
2022/05/30 10:03:44;;;;;;;8.27;4.38;;;;;;;;;;5100949;28;20040;-85
2022/05/30 10:06:42;;;;;;;13.50;4.97;;;;;;;;;;5100679;28;20052;-86
2022/05/30 10:10:01;;;;;;;8.52;5.03;;;;;;;;;;5100413;28;20040;-85
2022/05/30 10:13:04;;;;;;;9.15;4.53;;;;;;;;;;5100557;28;20043;-86
2022/05/30 10:16:34;;;;;;;8.27;4.72;;;;;;;;;;5080356;28;20040;-83
2022/05/30 10:19:31;;;;;;;12.38;4.90;;;;;;;;;;5094579;28;20040;-85
2022/05/30 10:30:26;;;;;;;8.85;4.88;;;;;;;;;;5058417;28;20036;-84
2022/05/30 10:34:02;;;;;;;10.10;4.82;;;;;;;;;;5088949;28;20043;-84
2022/05/30 10:37:00;;;;;;;7.43;4.40;;;;;;;;;;5101277;28;20039;-85
2022/05/30 10:39:55;;;;;;;8.27;4.28;;;;;;;;;;5102271;28;20027;-87
2022/05/30 10:42:47;;;;;;;;;;;;;;;;;;5101004;28;20039;-85
2022/05/30 10:46:08;;;;;;;6.90;4.22;;;;;;;;;;5100725;28;19916;-83
2022/05/30 10:49:02;;;;;;;8.52;4.30;;;;;;;;;;5062504;28;20044;-85
2022/05/30 10:52:00;;;;;;;8.27;4.03;;;;;;;;;;5102662;28;20044;-87
2022/05/30 10:54:57;;;;;;;5.85;3.55;;;;;;;;;;5102003;28;20044;-85
2022/05/30 10:58:08;;;;;;;5.85;3.75;;;;;;;;;;5101115;28;20036;-86
2022/05/30 11:01:08;;;;;;;7.18;4.05;;;;;;;;;;5087785;28;20040;-88
2022/05/30 11:04:12;;;;;;;6.15;4.20;;;;;;;;;;5087284;28;20044;-87
2022/05/30 11:07:12;;;;;;;5.35;4.10;;;;;;;;;;5087374;28;20039;-86
2022/05/30 11:10:20;;;;;;;6.10;4.03;;;;;;;;;;5087329;28;20039;-87
2022/05/30 11:13:16;;;;;;;5.47;3.97;;;;;;;;;;5103878;28;20051;-88
2022/05/30 11:16:39;;;;;;;6.63;3.80;;;;;;;;;;5103523;28;20032;-85
2022/05/30 11:19:43;;;;;;;7.95;3.90;;;;;;;;;;5097019;28;20044;-85
2022/05/30 11:22:53;;;;;;;7.10;4.50;;;;;;;;;;5094501;28;20040;-87
2022/05/30 11:25:45;;;;;;;5.00;3.58;;;;;;;;;;5095625;28;20394;-89
2022/05/30 11:28:55;;;;;;;10.02;4.20;;;;;;;;;;5087009;28;20490;-85
2022/05/30 11:31:53;;;;;;;10.27;3.72;;;;;;;;;;5102466;28;20044;-86
2022/05/30 11:35:22;;;;;;;6.00;3.80;;;;;;;;;;5100834;28;20040;-87
2022/05/30 11:38:48;;;;;;;9.68;3.70;;;;;;;;;;5086195;28;20044;-89
2022/05/30 11:42:04;;;;;;;6.47;3.90;;;;;;;;;;5093592;28;20044;-88
2022/05/30 11:44:59;;;;;;;6.68;3.88;;;;;;;;;;5094819;28;20044;-89
2022/05/30 11:47:45;;;;;;;9.07;3.70;;;;;;;;;;5092898;28;20486;-87
2022/05/30 11:50:38;;;;;;;9.15;3.92;;;;;;;;;;5099914;28;20028;-87
2022/05/30 11:53:42;;;;;;;8.20;3.78;;;;;;;;;;5091384;28;20056;-87
2022/05/30 11:56:36;;;;;;;10.27;4.00;;;;;;;;;;5090344;28;20044;-87
2022/05/30 11:59:47;;;;;;;11.02;3.85;;;;;;;;;;5099651;28;20044;-85
2022/05/30 12:02:59;;;;;;;6.93;3.70;;;;;;;;;;5103389;28;20052;-87
2022/05/30 12:06:09;;;;;;;10.70;3.30;;;;;;;;;;5103007;28;20511;-87
2022/05/30 12:09:11;;;;;;;5.45;3.50;;;;;;;;;;5089298;28;20043;-87
2022/05/30 12:12:16;;;;;;;7.50;3.10;;;;;;;;;;5103090;28;20048;-88
2022/05/30 12:15:29;;;;;;;11.10;3.35;;;;;;;;;;5103839;28;20060;-88
2022/05/30 12:24:40;;;;;;;6.43;3.17;;;;;;;;;;5102986;28;20040;-86
2022/05/30 12:27:28;;;;;;;8.50;4.03;;;;;;;;;;5088590;28;20047;-86
2022/05/30 12:30:35;;;;;;;8.98;4.18;;;;;;;;;;5102392;28;20485;-86
2022/05/30 12:33:29;;;;;;;7.43;3.95;;;;;;;;;;5103108;28;20048;-86
2022/05/30 12:36:16;;;;;;;;;;;;;;;;;;5103515;28;20036;-86
2022/05/30 12:39:29;;;;;;;5.60;3.33;;;;;;;;;;5102933;28;20390;-84
2022/05/30 12:42:32;;;;;;;15.93;3.83;;;;;;;;;;5088011;28;20394;-87
2022/05/30 12:45:33;;;;;;;5.30;3.47;;;;;;;;;;5102981;28;20040;-86
2022/05/30 12:48:35;;;;;;;10.07;4.10;;;;;;;;;;5087950;28;20394;-85
2022/05/30 12:51:33;;;;;;;7.60;3.90;;;;;;;;;;5087696;28;20032;-88
2022/05/30 12:54:29;;;;;;;13.27;3.97;;;;;;;;;;5088652;28;20040;-86
2022/05/30 12:57:49;;;;;;;8.60;3.92;;;;;;;;;;5102493;28;20044;-86
2022/05/30 13:00:40;;;;;;;7.53;3.88;;;;;;;;;;5019450;28;20034;-87
2022/05/30 13:03:30;;;;;;;8.43;3.60;;;;;;;;;;5087454;28;20044;-86
2022/05/30 13:06:19;;;;;;;9.57;3.90;;;;;;;;;;5088044;28;20036;-85
2022/05/30 13:09:34;;;;;;;11.80;4.72;;;;;;;;;;5087350;28;20047;-86
2022/05/30 13:12:51;;;;;;;9.02;4.30;;;;;;;;;;5101563;28;20055;-86
2022/05/30 13:15:48;;;;;;;8.75;3.67;;;;;;;;;;5101883;28;20466;-86
2022/05/30 13:18:33;;;;;;;7.70;3.45;;;;;;;;;;5101744;28;20040;-88
2022/05/30 13:21:21;;;;;;;10.07;3.60;;;;;;;;;;5087562;28;20048;-87
2022/05/30 13:24:26;;;;;;;8.70;3.75;;;;;;;;;;5101219;28;20482;-86
2022/05/30 13:27:12;;;;;;;10.63;3.30;;;;;;;;;;5096083;28;20040;-87
2022/05/30 13:30:06;;;;;;;10.65;3.65;;;;;;;;;;5095386;28;20032;-84
2022/05/30 13:32:51;;;;;;;9.93;3.60;;;;;;;;;;5101715;28;20474;-85
2022/05/30 13:35:39;;;;;;;8.73;3.75;;;;;;;;;;5102447;28;20036;-86
2022/05/30 13:38:52;;;;;;;8.02;3.78;;;;;;;;;;5095131;28;20040;-86
2022/05/30 13:41:39;;;;;;;11.60;4.30;;;;;;;;;;5102463;28;20040;-86
2022/05/30 13:44:28;;;;;;;9.05;3.80;;;;;;;;;;5086741;28;20055;-88
2022/05/30 13:47:15;;;;;;;10.43;3.80;;;;;;;;;;5095422;28;20048;-83
2022/05/30 13:50:02;;;;;;;9.30;4.00;;;;;;;;;;5101809;28;20035;-86
2022/05/30 13:52:48;;;;;;;9.63;4.32;;;;;;;;;;5094550;28;20052;-86
2022/05/30 13:55:33;;;;;;;9.68;4.20;;;;;;;;;;5095131;28;20052;-86
2022/05/30 13:58:19;;;;;;;8.68;3.97;;;;;;;;;;5094506;28;20351;-86
2022/05/30 14:01:07;;;;;;;8.70;4.05;;;;;;;;;;5095313;28;20036;-83
2022/05/30 14:04:00;;;;;;;14.68;3.97;;;;;;;;;;5095205;28;20039;-84
2022/05/30 14:06:46;;;;;;;7.32;4.05;;;;;;;;;;5093997;28;20386;-84
2022/05/30 14:09:31;;;;;;;13.20;4.32;;;;;;;;;;5083866;28;20490;-85
2022/05/30 14:12:19;;;;;;;18.67;5.50;;;;;;;;;;5084933;28;20044;-86
2022/05/30 14:15:23;;;;;;;11.55;4.70;;;;;;;;;;5080354;28;20048;-88
2022/05/30 14:18:27;;;;;;;17.58;4.95;;;;;;;;;;5066039;28;20395;-87
2022/05/30 14:21:22;;;;;;;18.65;6.43;;;;;;;;;;5066318;28;20041;-85
2022/05/30 14:24:22;;;;;;;10.45;5.28;;;;;;;;;;5066017;28;20040;-87
2022/05/30 14:27:17;;;;;;;17.02;6.18;;;;;;;;;;5080058;28;20040;-86
2022/05/30 14:30:08;;;;;;;;;;;;;;;;;;5078473;28;20044;-87
2022/05/30 14:33:14;;;;;;;9.48;4.82;;;;;;;;;;5091689;28;19916;-86
2022/05/30 14:36:21;;;;;;;11.38;4.65;;;;;;;;;;5084324;28;20040;-88
2022/05/30 14:39:24;;;;;;;8.80;5.50;;;;;;;;;;5093543;28;20048;-85
2022/05/30 14:42:18;;;;;;;14.85;7.00;;;;;;;;;;5094739;28;20482;-85
2022/05/30 14:45:11;;;;;;;17.58;6.05;;;;;;;;;;5082953;28;20044;-82
2022/05/30 14:48:07;;;;;;;10.88;6.07;;;;;;;;;;5078469;28;20044;-84
2022/05/30 14:51:04;;;;;;;10.20;6.07;;;;;;;;;;5085291;28;20486;-84
2022/05/30 14:53:50;;;;;;;16.65;6.55;;;;;;;;;;5092954;28;20040;-82
2022/05/30 14:56:39;;;;;;;14.18;6.65;;;;;;;;;;5094376;28;20044;-86
2022/05/30 14:59:31;;;;;;;13.90;7.05;;;;;;;;;;5097235;28;20401;-84
2022/05/30 15:05:22;;;;;;;10.18;6.90;;;;;;;;;;5094197;28;20467;-84
2022/05/30 15:08:08;;;;;;;11.63;6.45;;;;;;;;;;5094101;28;20044;-84
2022/05/30 15:10:53;;;;;;;13.40;6.05;;;;;;;;;;5092140;28;20044;-84
2022/05/30 15:13:39;;;;;;;10.60;5.95;;;;;;;;;;5076040;28;20056;-84
2022/05/30 15:16:25;;;;;;;17.30;5.70;;;;;;;;;;5073322;28;20048;-84
2022/05/30 15:19:11;;;;;;;12.05;5.68;;;;;;;;;;5085195;28;20040;-83
2022/05/30 15:22:01;;;;;;;10.18;5.75;;;;;;;;;;5083453;28;20033;-83
2022/05/30 15:24:53;;;;;;;13.77;5.70;;;;;;;;;;5077365;28;20044;-84
2022/05/30 15:27:40;;;;;;;12.80;5.47;;;;;;;;;;5086933;28;20406;-83
2022/05/30 15:30:25;;;;;;;11.70;5.78;;;;;;;;;;5082737;28;20039;-83
2022/05/30 15:33:12;;;;;;;6.72;4.72;;;;;;;;;;5084692;28;20379;-84
2022/05/30 15:35:57;;;;;;;13.77;4.88;;;;;;;;;;5081992;28;20044;-83
2022/05/30 15:38:43;;;;;;;13.98;5.03;;;;;;;;;;5083272;28;20060;-83
2022/05/30 15:41:31;;;;;;;13.35;5.40;;;;;;;;;;5097453;28;20048;-84
2022/05/30 15:44:19;;;;;;;12.60;5.63;;;;;;;;;;5092962;28;20036;-84
2022/05/30 15:47:05;;;;;;;11.13;4.95;;;;;;;;;;5095681;28;20481;-84
2022/05/30 15:49:50;;;;;;;12.77;5.60;;;;;;;;;;5090641;28;20036;-82
2022/05/30 15:58:48;;;;;;;11.15;4.97;;;;;;;;;;5076875;28;20475;-84
2022/05/30 16:01:33;;;;;;;10.23;5.10;;;;;;;;;;5076840;28;20410;-84
2022/05/30 16:04:19;;;;;;;11.15;5.30;;;;;;;;;;5083532;28;20048;-85
2022/05/30 16:07:06;;;;;;;13.25;5.50;;;;;;;;;;5083282;28;20422;-85
2022/05/30 16:09:59;;;;;;;14.65;5.82;;;;;;;;;;5083534;28;20044;-85
2022/05/30 16:12:48;;;;;;;13.60;5.72;;;;;;;;;;5076246;28;20056;-84
2022/05/30 16:15:33;;;;;;;8.68;4.30;;;;;;;;;;5077163;28;20489;-84
2022/05/30 16:18:19;;;;;;;8.95;4.20;;;;;;;;;;5076468;28;20048;-83
2022/05/30 16:21:10;;;;;;;8.15;4.10;;;;;;;;;;5083283;28;20044;-83
2022/05/30 16:23:58;;;;;;;7.45;4.13;;;;;;;;;;5084505;28;20036;-84
2022/05/30 16:26:44;;;;;;;6.97;4.20;;;;;;;;;;5093208;28;20056;-83
2022/05/30 16:29:29;;;;;;;10.27;3.90;;;;;;;;;;5081004;28;20478;-83
2022/05/30 16:32:15;;;;;;;8.35;4.03;;;;;;;;;;5089556;28;20374;-83
2022/05/30 16:35:01;;;;;;;7.57;4.00;;;;;;;;;;5086096;28;20049;-83
2022/05/30 16:37:47;;;;;;;8.15;3.83;;;;;;;;;;5099522;28;20056;-85
2022/05/30 16:40:33;;;;;;;6.78;3.78;;;;;;;;;;5091252;28;20052;-83
2022/05/30 16:43:18;;;;;;;9.00;3.50;;;;;;;;;;5087541;28;20043;-84
2022/05/30 16:46:05;;;;;;;7.45;3.60;;;;;;;;;;5075670;28;20052;-83
2022/05/30 16:48:50;;;;;;;4.00;3.10;;;;;;;;;;5081940;28;20041;-83
2022/05/30 16:51:36;;;;;;;8.25;3.78;;;;;;;;;;5075627;28;20041;-83
2022/05/30 16:54:22;;;;;;;8.05;3.88;;;;;;;;;;5084677;28;20486;-84
2022/05/30 16:57:07;;;;;;;7.07;4.40;;;;;;;;;;5082590;28;20040;-84
2022/05/30 16:59:52;;;;;;;9.18;3.80;;;;;;;;;;5078654;28;20065;-84
2022/05/30 17:02:38;;;;;;;4.53;2.95;;;;;;;;;;5083092;28;20048;-84
2022/05/30 17:05:24;;;;;;;5.45;2.50;;;;;;;;;;5092559;28;20406;-83
2022/05/30 17:08:12;;;;;;;5.35;2.40;;;;;;;;;;5094868;28;20044;-83
2022/05/30 17:10:57;;;;;;;7.28;2.40;;;;;;;;;;5102550;28;20039;-83
2022/05/30 17:13:43;;;;;;;5.93;2.60;;;;;;;;;;5080245;28;20040;-86
2022/05/30 17:16:35;;;;;;;5.68;3.05;;;;;;;;;;5085529;28;20044;-82
2022/05/30 17:19:22;;;;;;;8.35;2.75;;;;;;;;;;5095713;28;20051;-85
2022/05/30 17:22:07;;;;;;;5.32;2.78;;;;;;;;;;5102299;28;20043;-83
2022/05/30 17:24:53;;;;;;;5.82;2.70;;;;;;;;;;5102309;28;20044;-83
2022/05/30 17:30:42;;;;;;;7.13;3.45;;;;;;;;;;5085098;28;20438;-85
2022/05/30 17:33:29;;;;;;;5.65;3.33;;;;;;;;;;5084727;28;20044;-84
2022/05/30 17:36:14;;;;;;;8.10;3.67;;;;;;;;;;5082923;28;20036;-85
2022/05/30 17:39:00;;;;;;;5.10;3.15;;;;;;;;;;5078432;28;20052;-84
2022/05/30 17:41:46;;;;;;;8.88;3.50;;;;;;;;;;5074997;28;20044;-84
2022/05/30 17:44:31;;;;;;;9.73;4.07;;;;;;;;;;5083742;28;20040;-83
2022/05/30 17:47:26;;;;;;;11.30;4.45;;;;;;;;;;5090453;28;20036;-82
2022/05/30 17:50:11;;;;;;;;;;;;;;;;;;5083681;28;20052;-82
2022/05/30 17:52:59;;;;;;;9.40;5.15;;;;;;;;;;5074938;28;19916;-81
2022/05/30 17:55:49;;;;;;;8.35;5.07;;;;;;;;;;5074308;28;20060;-82
2022/05/30 17:58:34;;;;;;;10.48;6.43;;;;;;;;;;5080207;28;20048;-82
2022/05/30 18:01:20;;;;;;;12.02;7.60;;;;;;;;;;5081129;28;20045;-81
2022/05/30 18:04:06;;;;;;;11.77;7.10;;;;;;;;;;5076937;28;20044;-81
2022/05/30 18:07:09;;;;;;;13.98;7.57;;;;;;;;;;5085142;28;20044;-85
2022/05/30 18:10:00;;;;;;;15.35;8.57;;;;;;;;;;5100300;28;20052;-83
2022/05/30 18:13:05;;;;;;;12.32;8.02;;;;;;;;;;5090388;28;20386;-82
2022/05/30 18:16:09;;;;;;;16.45;8.52;;;;;;;;;;5089965;28;20478;-83
2022/05/30 18:22:38;;;;;;;13.00;8.70;;;;;;;;;;5074374;28;20052;-81
2022/05/30 18:25:31;;;;;;;11.60;8.95;;;;;;;;;;5080851;28;20045;-81
2022/05/30 18:28:17;;;;;;;13.23;8.68;;;;;;;;;;5077081;28;20052;-83
2022/05/30 18:31:14;;;;;;;11.40;9.10;;;;;;;;;;5076356;28;20033;-82
2022/05/30 18:34:12;;;;;;;12.32;8.50;;;;;;;;;;5088797;28;20044;-81
2022/05/30 18:37:03;;;;;;;12.02;8.88;;;;;;;;;;5089401;28;20044;-83
2022/05/30 18:40:07;;;;;;;12.40;8.57;;;;;;;;;;5096427;28;20049;-81
2022/05/30 18:43:31;;;;;;;12.43;8.10;;;;;;;;;;5100926;28;20052;-82
2022/05/30 18:46:27;;;;;;;14.88;9.95;;;;;;;;;;5066258;28;20486;-82
2022/05/30 18:49:34;;;;;;;12.35;9.40;;;;;;;;;;5087114;28;20032;-83
2022/05/30 18:52:20;;;;;;;13.10;9.40;;;;;;;;;;5093482;28;20395;-82
2022/05/30 18:55:14;;;;;;;13.48;9.10;;;;;;;;;;5088846;28;20132;-82
2022/05/30 18:58:17;;;;;;;15.02;9.75;;;;;;;;;;5084852;28;20398;-83
2022/05/30 19:01:03;;;;;;;14.35;9.52;;;;;;;;;;5079321;28;20052;-80
2022/05/30 19:03:49;;;;;;;15.40;9.55;;;;;;;;;;5081635;28;20048;-84
2022/05/30 19:06:36;;;;;;;15.70;9.73;;;;;;;;;;5089178;28;20040;-82
2022/05/30 19:09:22;;;;;;;15.65;9.73;;;;;;;;;;5099780;28;20051;-80
2022/05/30 19:12:12;;;;;;;16.15;9.45;;;;;;;;;;5100025;28;20048;-81
2022/05/30 19:18:17;;;;;;;13.65;9.27;;;;;;;;;;5085764;28;20425;-82
2022/05/30 19:21:02;;;;;;;11.60;8.90;;;;;;;;;;5092384;28;20052;-82
2022/05/30 19:23:48;;;;;;;13.18;8.55;;;;;;;;;;5080601;28;20049;-81
2022/05/30 19:26:34;;;;;;;11.23;8.45;;;;;;;;;;5079796;28;20056;-81
2022/05/30 19:29:22;;;;;;;11.15;7.10;;;;;;;;;;5079147;28;20049;-82
2022/05/30 19:32:12;;;;;;;9.77;5.47;;;;;;;;;;5079649;28;20403;-82
2022/05/30 19:34:58;;;;;;;8.10;5.10;;;;;;;;;;5079611;28;20487;-81
2022/05/30 19:37:44;;;;;;;9.65;5.13;;;;;;;;;;5094419;28;20056;-81
2022/05/30 19:40:36;;;;;;;8.48;5.20;;;;;;;;;;5089335;28;20044;-82
2022/05/30 19:43:22;;;;;;;7.25;5.00;;;;;;;;;;5081910;28;20048;-82